createdAt,value
2022-12-03T00:01:30.240Z,5.80
2022-12-03T00:03:56.878Z,5.80
2022-12-03T00:06:24.222Z,5.80
2022-12-03T00:08:50.871Z,5.80
2022-12-03T00:11:17.577Z,5.80
2022-12-03T00:13:45.546Z,5.80
2022-12-03T00:16:12.373Z,5.80
2022-12-03T00:18:39.061Z,5.70
2022-12-03T00:21:05.922Z,5.70
2022-12-03T00:23:35.894Z,5.70
2022-12-03T00:26:05.387Z,5.80
2022-12-03T00:28:31.974Z,5.70
2022-12-03T00:30:58.766Z,5.70
2022-12-03T00:33:25.445Z,5.70
2022-12-03T00:35:52.136Z,5.70
2022-12-03T00:38:18.830Z,5.70
2022-12-03T00:40:45.529Z,5.70
2022-12-03T00:43:12.194Z,5.70
2022-12-03T00:45:38.855Z,5.70
2022-12-03T00:48:05.578Z,5.70
2022-12-03T00:50:32.277Z,5.70
2022-12-03T00:52:58.928Z,5.70
2022-12-03T00:55:25.519Z,5.70
2022-12-03T00:57:52.257Z,5.70
2022-12-03T01:00:19.204Z,5.70
2022-12-03T01:02:45.873Z,5.70
2022-12-03T01:05:12.545Z,5.70
2022-12-03T01:07:39.311Z,5.70
2022-12-03T01:10:06.672Z,5.70
2022-12-03T01:12:33.309Z,5.70
2022-12-03T01:14:59.876Z,5.70
2022-12-03T01:17:26.522Z,5.60
2022-12-03T01:19:53.241Z,5.70
2022-12-03T01:22:19.877Z,5.70
2022-12-03T01:24:46.487Z,5.70
2022-12-03T01:27:13.340Z,5.70
2022-12-03T01:29:40.028Z,5.60
2022-12-03T01:32:22.041Z,5.70
2022-12-03T01:34:53.997Z,5.60
2022-12-03T01:37:23.386Z,5.60
2022-12-03T01:39:50.244Z,5.60
2022-12-03T01:42:26.763Z,5.60
2022-12-03T01:44:56.261Z,5.60
2022-12-03T01:47:30.117Z,5.60
2022-12-03T01:50:01.720Z,5.60
2022-12-03T01:52:32.358Z,5.60
2022-12-03T01:55:01.872Z,5.60
2022-12-03T01:57:40.789Z,5.60
2022-12-03T02:00:15.978Z,5.60
2022-12-03T02:02:42.766Z,5.60
2022-12-03T02:05:26.252Z,5.60
2022-12-03T02:07:53.168Z,5.60
2022-12-03T02:10:26.854Z,5.60
2022-12-03T02:13:04.760Z,5.60
2022-12-03T02:15:31.373Z,5.60
2022-12-03T02:17:58.127Z,5.60
2022-12-03T02:20:24.838Z,5.60
2022-12-03T02:22:51.456Z,5.60
2022-12-03T02:25:31.960Z,5.60
2022-12-03T02:27:59.789Z,5.60
2022-12-03T02:30:28.335Z,5.60
2022-12-03T02:32:56.053Z,5.60
2022-12-03T02:35:25.959Z,5.60
2022-12-03T02:38:17.311Z,5.50
2022-12-03T02:40:46.512Z,5.60
2022-12-03T02:43:16.669Z,5.60
2022-12-03T02:45:46.402Z,5.60
2022-12-03T02:48:18.018Z,5.60
2022-12-03T02:50:51.775Z,5.50
2022-12-03T02:53:31.194Z,5.50
2022-12-03T02:56:00.700Z,5.50
2022-12-03T02:58:30.004Z,5.50
2022-12-03T03:00:57.574Z,5.50
2022-12-03T03:03:26.191Z,5.50
2022-12-03T03:05:53.710Z,5.50
2022-12-03T03:08:20.556Z,5.50
2022-12-03T03:10:47.900Z,5.50
2022-12-03T03:13:16.661Z,5.50
2022-12-03T03:15:44.154Z,5.50
2022-12-03T03:18:12.013Z,5.50
2022-12-03T03:20:38.858Z,5.50
2022-12-03T03:23:11.308Z,5.50
2022-12-03T03:25:43.809Z,5.50
2022-12-03T03:28:11.030Z,5.50
2022-12-03T03:30:39.437Z,5.50
2022-12-03T03:33:06.517Z,5.50
2022-12-03T03:35:33.181Z,5.50
2022-12-03T03:38:00.223Z,5.50
2022-12-03T03:40:27.581Z,5.50
2022-12-03T03:42:55.581Z,5.50
2022-12-03T03:45:28.558Z,5.50
2022-12-03T03:47:57.957Z,5.50
2022-12-03T03:50:25.819Z,5.50
2022-12-03T03:52:53.059Z,5.50
2022-12-03T03:55:20.503Z,5.50
2022-12-03T03:57:47.932Z,5.50
2022-12-03T04:00:14.868Z,5.50
2022-12-03T04:02:41.750Z,5.50
2022-12-03T04:05:15.848Z,5.50
2022-12-03T04:07:42.537Z,5.50
2022-12-03T04:10:28.766Z,5.50
2022-12-03T04:12:55.450Z,5.50
2022-12-03T04:15:22.651Z,5.50
2022-12-03T04:18:10.028Z,5.50
2022-12-03T04:20:37.925Z,5.50
2022-12-03T04:23:05.242Z,5.50
2022-12-03T04:25:51.153Z,5.50
2022-12-03T04:28:36.367Z,5.40
2022-12-03T04:31:22.977Z,5.40
2022-12-03T04:34:08.499Z,5.40
2022-12-03T04:36:35.110Z,5.40
2022-12-03T04:39:01.791Z,5.40
2022-12-03T04:41:28.360Z,5.40
2022-12-03T04:44:13.448Z,5.40
2022-12-03T04:46:40.030Z,5.40
2022-12-03T04:49:06.740Z,5.40
2022-12-03T04:51:33.404Z,5.40
2022-12-03T04:54:00.137Z,5.40
2022-12-03T04:56:26.777Z,5.40
2022-12-03T04:58:53.424Z,5.40
2022-12-03T05:01:20.137Z,5.40
2022-12-03T05:03:46.746Z,5.40
2022-12-03T05:06:13.349Z,5.40
2022-12-03T05:08:40.001Z,5.40
2022-12-03T05:11:06.916Z,5.40
2022-12-03T05:13:33.689Z,5.40
2022-12-03T05:16:00.305Z,5.40
2022-12-03T05:18:26.939Z,5.40
2022-12-03T05:20:53.887Z,5.40
2022-12-03T05:23:21.001Z,5.40
2022-12-03T05:25:47.675Z,5.40
2022-12-03T05:28:14.287Z,5.40
2022-12-03T05:30:41.125Z,5.40
2022-12-03T05:33:07.934Z,5.40
2022-12-03T05:35:34.539Z,5.30
2022-12-03T05:38:01.218Z,5.40
2022-12-03T05:40:27.911Z,5.40
2022-12-03T05:42:54.627Z,5.40
2022-12-03T05:45:26.412Z,5.40
2022-12-03T05:47:55.099Z,5.40
2022-12-03T05:50:23.219Z,5.30
2022-12-03T05:52:50.074Z,5.40
2022-12-03T05:55:17.527Z,5.40
2022-12-03T05:57:44.466Z,5.40
2022-12-03T06:00:22.836Z,5.30
2022-12-03T06:02:49.616Z,5.30
2022-12-03T06:05:19.511Z,5.40
2022-12-03T06:07:46.969Z,5.30
2022-12-03T06:10:16.160Z,5.30
2022-12-03T06:12:42.781Z,5.30
2022-12-03T06:15:11.324Z,5.30
2022-12-03T06:17:38.208Z,5.30
2022-12-03T06:20:06.029Z,5.30
2022-12-03T06:22:32.814Z,5.30
2022-12-03T06:25:04.885Z,5.30
2022-12-03T06:27:33.314Z,5.30
2022-12-03T06:29:59.924Z,5.30
2022-12-03T06:32:26.650Z,5.30
2022-12-03T06:34:53.573Z,5.30
2022-12-03T06:37:20.287Z,5.30
2022-12-03T06:39:46.867Z,5.30
2022-12-03T06:42:13.485Z,5.30
2022-12-03T06:44:40.076Z,5.30
2022-12-03T06:47:06.824Z,5.30
2022-12-03T06:49:33.595Z,5.30
2022-12-03T06:52:00.205Z,5.30
2022-12-03T06:54:27.025Z,5.30
2022-12-03T06:56:53.697Z,5.30
2022-12-03T06:59:20.321Z,5.30
2022-12-03T07:01:46.997Z,5.30
2022-12-03T07:04:13.804Z,5.30
2022-12-03T07:06:40.455Z,5.30
2022-12-03T07:09:07.081Z,5.30
2022-12-03T07:11:39.871Z,5.30
2022-12-03T07:14:07.985Z,5.30
2022-12-03T07:16:35.890Z,5.30
2022-12-03T07:19:03.876Z,5.30
2022-12-03T07:21:30.589Z,5.30
2022-12-03T07:23:57.198Z,5.30
2022-12-03T07:26:23.915Z,5.30
2022-12-03T07:28:50.468Z,5.30
2022-12-03T07:31:17.352Z,5.30
2022-12-03T07:33:43.976Z,5.30
2022-12-03T07:36:10.697Z,5.30
2022-12-03T07:38:37.414Z,5.30
2022-12-03T07:41:04.079Z,5.30
2022-12-03T07:43:30.820Z,5.30
2022-12-03T07:45:57.409Z,5.30
2022-12-03T07:48:24.061Z,5.30
2022-12-03T07:50:50.791Z,5.30
2022-12-03T07:53:17.555Z,5.30
2022-12-03T07:55:44.123Z,5.30
2022-12-03T07:58:10.763Z,5.30
2022-12-03T08:00:37.439Z,5.30
2022-12-03T08:03:04.173Z,5.30
2022-12-03T08:05:30.882Z,5.30
2022-12-03T08:07:57.537Z,5.30
2022-12-03T08:10:25.513Z,5.30
2022-12-03T08:12:53.755Z,5.30
2022-12-03T08:15:25.388Z,5.30
2022-12-03T08:17:56.080Z,5.30
2022-12-03T08:20:25.131Z,5.30
2022-12-03T08:22:53.855Z,5.30
2022-12-03T08:25:30.518Z,5.30
2022-12-03T08:28:02.513Z,5.30
2022-12-03T08:30:29.098Z,5.30
2022-12-03T08:32:58.158Z,5.30
2022-12-03T08:35:28.428Z,5.30
2022-12-03T08:37:59.415Z,5.30
2022-12-03T08:40:37.159Z,5.30
2022-12-03T08:43:12.032Z,5.30
2022-12-03T08:45:41.472Z,5.30
2022-12-03T08:48:19.245Z,5.30
2022-12-03T08:50:48.911Z,5.30
2022-12-03T08:53:18.516Z,5.30
2022-12-03T08:55:53.089Z,5.30
2022-12-03T08:58:40.355Z,5.30
2022-12-03T09:01:12.995Z,5.30
2022-12-03T09:03:47.706Z,5.30
2022-12-03T09:06:14.345Z,5.30
2022-12-03T09:08:40.954Z,5.30
2022-12-03T09:11:07.581Z,5.30
2022-12-03T09:13:34.283Z,5.30
2022-12-03T09:16:00.975Z,5.30
2022-12-03T09:18:27.588Z,5.30
2022-12-03T09:20:54.271Z,5.30
2022-12-03T09:23:20.829Z,5.30
2022-12-03T09:25:47.508Z,5.30
2022-12-03T09:28:14.208Z,5.30
2022-12-03T09:30:40.989Z,5.30
2022-12-03T09:33:07.638Z,5.30
2022-12-03T09:35:34.270Z,5.30
2022-12-03T09:38:00.881Z,5.30
2022-12-03T09:40:28.467Z,5.30
2022-12-03T09:42:58.534Z,5.30
2022-12-03T09:45:25.432Z,5.30
2022-12-03T09:47:52.233Z,5.30
2022-12-03T09:50:26.685Z,5.30
2022-12-03T09:52:55.171Z,5.30
2022-12-03T09:55:23.875Z,5.30
2022-12-03T09:57:54.872Z,5.30
2022-12-03T10:00:28.295Z,5.30
2022-12-03T10:02:58.178Z,5.30
2022-12-03T10:05:25.261Z,5.40
2022-12-03T10:07:52.468Z,5.40
2022-12-03T10:10:25.196Z,5.40
2022-12-03T10:12:52.473Z,5.40
2022-12-03T10:15:21.840Z,5.40
2022-12-03T10:17:50.514Z,5.40
2022-12-03T10:20:19.533Z,5.40
2022-12-03T10:22:48.685Z,5.40
2022-12-03T10:25:19.207Z,5.40
2022-12-03T10:28:05.360Z,5.40
2022-12-03T10:30:32.199Z,5.40
2022-12-03T10:33:02.609Z,5.50
2022-12-03T10:35:41.297Z,5.50
2022-12-03T10:38:18.770Z,5.50
2022-12-03T10:40:46.601Z,5.50
2022-12-03T10:43:20.819Z,5.50
2022-12-03T10:46:03.878Z,5.50
2022-12-03T10:48:31.555Z,5.50
2022-12-03T10:51:10.429Z,5.50
2022-12-03T10:53:38.615Z,5.50
2022-12-03T10:56:07.767Z,5.50
2022-12-03T10:58:36.670Z,5.50
2022-12-03T11:01:13.443Z,5.50
2022-12-03T11:03:40.374Z,5.50
2022-12-03T11:06:13.769Z,5.50
2022-12-03T11:08:43.486Z,5.50
2022-12-03T11:11:30.452Z,5.50
2022-12-03T11:14:02.040Z,5.50
2022-12-03T11:16:52.076Z,5.50
2022-12-03T11:19:38.593Z,5.50
2022-12-03T11:22:05.260Z,5.60
2022-12-03T11:24:37.986Z,5.60
2022-12-03T11:27:04.570Z,5.60
2022-12-03T11:29:56.911Z,5.60
2022-12-03T11:32:38.774Z,5.60
2022-12-03T11:35:13.525Z,5.60
2022-12-03T11:37:40.230Z,5.60
2022-12-03T11:40:18.843Z,5.60
2022-12-03T11:42:47.914Z,5.60
2022-12-03T11:45:23.480Z,5.60
2022-12-03T11:47:58.901Z,5.60
2022-12-03T11:50:43.644Z,5.60
2022-12-03T11:53:21.155Z,5.60
2022-12-03T11:56:04.042Z,5.60
2022-12-03T11:58:31.232Z,5.60
2022-12-03T12:01:00.731Z,5.60
2022-12-03T12:03:33.331Z,5.60
2022-12-03T12:06:04.938Z,5.60
2022-12-03T12:08:32.277Z,5.70
2022-12-03T12:10:59.073Z,5.60
2022-12-03T12:13:32.395Z,5.70
2022-12-03T12:16:02.780Z,5.70
2022-12-03T12:18:39.404Z,5.70
2022-12-03T12:21:43.587Z,5.70
2022-12-03T12:24:47.720Z,5.70
2022-12-03T12:27:34.605Z,5.70
2022-12-03T12:30:05.183Z,5.70
2022-12-03T12:32:46.057Z,5.60
2022-12-03T12:35:22.272Z,5.50
2022-12-03T12:37:59.086Z,5.50
2022-12-03T12:40:29.284Z,5.40
2022-12-03T12:43:10.260Z,5.40
2022-12-03T12:45:42.074Z,5.40
2022-12-03T12:48:14.892Z,5.30
2022-12-03T12:50:43.884Z,5.40
2022-12-03T12:53:30.856Z,5.30
2022-12-03T12:56:22.059Z,5.30
2022-12-03T12:58:49.010Z,5.30
2022-12-03T13:01:27.165Z,5.30
2022-12-03T13:03:54.173Z,5.30
2022-12-03T13:06:32.026Z,5.30
2022-12-03T13:09:01.333Z,5.30
2022-12-03T13:11:42.264Z,5.30
2022-12-03T13:14:16.997Z,5.30
2022-12-03T13:16:43.853Z,5.20
2022-12-03T13:19:20.603Z,5.20
2022-12-03T13:21:47.269Z,5.20
2022-12-03T13:24:46.545Z,5.10
2022-12-03T13:27:16.215Z,5.20
2022-12-03T13:29:44.160Z,5.10
2022-12-03T13:32:19.091Z,5.10
2022-12-03T13:34:46.702Z,5.10
2022-12-03T13:37:19.271Z,5.10
2022-12-03T13:39:53.546Z,5.10
2022-12-03T13:42:41.594Z,5.10
2022-12-03T13:45:14.082Z,5.30
2022-12-03T13:47:42.114Z,5.40
2022-12-03T13:50:40.822Z,5.90
2022-12-03T13:53:15.696Z,5.90
2022-12-03T13:55:47.638Z,5.60
2022-12-03T13:58:14.402Z,5.30
2022-12-03T14:00:41.120Z,5.30
2022-12-03T14:03:07.770Z,5.20
2022-12-03T14:05:34.494Z,5.20
2022-12-03T14:08:04.900Z,6.10
2022-12-03T14:10:32.106Z,6.20
2022-12-03T14:12:58.790Z,7.30
2022-12-03T14:15:26.446Z,7.00
2022-12-03T14:17:53.570Z,6.50
2022-12-03T14:20:20.215Z,6.20
2022-12-03T14:22:49.031Z,6.00
2022-12-03T14:25:15.811Z,7.00
2022-12-03T14:27:42.416Z,7.60
2022-12-03T14:30:09.672Z,7.70
2022-12-03T14:32:36.338Z,7.70
2022-12-03T14:35:09.522Z,7.40
2022-12-03T14:37:36.881Z,7.40
2022-12-03T14:40:04.137Z,7.10
2022-12-03T14:42:30.807Z,6.40
2022-12-03T14:44:57.431Z,6.20
2022-12-03T14:47:24.230Z,6.50
2022-12-03T14:49:52.614Z,6.50
2022-12-03T14:52:20.175Z,7.30
2022-12-03T14:54:46.830Z,6.40
2022-12-03T14:57:14.684Z,6.00
2022-12-03T14:59:42.877Z,5.70
2022-12-03T15:02:10.501Z,5.60
2022-12-03T15:04:37.867Z,5.60
2022-12-03T15:07:04.586Z,5.50
2022-12-03T15:09:31.264Z,5.50
2022-12-03T15:11:58.024Z,5.50
2022-12-03T15:14:24.624Z,5.40
2022-12-03T15:16:51.315Z,5.40
2022-12-03T15:19:17.935Z,5.30
2022-12-03T15:21:44.509Z,5.30
2022-12-03T15:24:11.132Z,5.30
2022-12-03T15:26:37.754Z,5.20
2022-12-03T15:29:04.416Z,5.20
2022-12-03T15:31:31.254Z,5.10
2022-12-03T15:33:57.997Z,5.10
2022-12-03T15:36:24.722Z,5.10
2022-12-03T15:38:51.353Z,5.10
2022-12-03T15:41:21.505Z,5.10
2022-12-03T15:43:48.974Z,5.20
2022-12-03T15:46:16.238Z,5.20
2022-12-03T15:48:43.032Z,5.20
2022-12-03T15:51:12.845Z,5.20
2022-12-03T15:53:40.125Z,5.20
2022-12-03T15:56:07.539Z,5.20
2022-12-03T15:58:37.278Z,5.10
2022-12-03T16:01:06.025Z,5.20
2022-12-03T16:03:32.675Z,5.10
2022-12-03T16:05:59.926Z,5.10
2022-12-03T16:08:29.196Z,5.10
2022-12-03T16:10:55.825Z,5.10
2022-12-03T16:13:25.586Z,5.10
2022-12-03T16:15:52.312Z,5.20
2022-12-03T16:18:19.024Z,5.20
2022-12-03T16:20:45.713Z,5.20
2022-12-03T16:23:12.314Z,5.20
2022-12-03T16:25:39.010Z,5.20
2022-12-03T16:28:05.631Z,5.20
2022-12-03T16:30:35.960Z,5.20
2022-12-03T16:33:02.663Z,5.20
2022-12-03T16:35:29.309Z,5.20
2022-12-03T16:37:55.980Z,5.20
2022-12-03T16:40:22.582Z,5.20
2022-12-03T16:42:49.167Z,5.10
2022-12-03T16:45:21.628Z,5.10
2022-12-03T16:47:48.596Z,5.10
2022-12-03T16:50:21.787Z,5.10
2022-12-03T16:52:57.434Z,5.10
2022-12-03T16:55:24.326Z,5.10
2022-12-03T16:57:50.963Z,5.10
2022-12-03T17:00:32.726Z,5.20
2022-12-03T17:02:59.436Z,5.10
2022-12-03T17:05:26.044Z,5.10
2022-12-03T17:07:52.778Z,5.10
2022-12-03T17:10:19.528Z,5.10
2022-12-03T17:13:09.013Z,5.10
2022-12-03T17:15:32.809Z,5.10
2022-12-03T17:17:59.634Z,5.10
2022-12-03T17:20:26.350Z,5.10
2022-12-03T17:22:52.935Z,5.10
2022-12-03T17:25:19.548Z,5.10
2022-12-03T17:27:46.364Z,5.10
2022-12-03T17:30:13.565Z,5.10
2022-12-03T17:32:40.431Z,5.10
2022-12-03T17:35:07.807Z,5.10
2022-12-03T17:37:34.728Z,5.10
2022-12-03T17:40:01.767Z,5.10
2022-12-03T17:42:28.386Z,5.10
2022-12-03T17:44:55.018Z,5.10
2022-12-03T17:47:21.658Z,5.10
2022-12-03T17:49:48.376Z,5.10
2022-12-03T17:52:15.043Z,5.10
2022-12-03T17:55:08.584Z,5.10
2022-12-03T17:57:28.415Z,5.10
2022-12-03T17:59:55.202Z,5.00
2022-12-03T18:02:22.194Z,5.00
2022-12-03T18:04:48.959Z,5.00
2022-12-03T18:07:15.585Z,5.00
2022-12-03T18:09:42.263Z,5.00
2022-12-03T18:12:09.061Z,5.00
2022-12-03T18:14:35.642Z,5.00
2022-12-03T18:17:02.270Z,5.00
2022-12-03T18:19:28.888Z,5.00
2022-12-03T18:21:55.536Z,5.00
2022-12-03T18:24:22.708Z,5.00
2022-12-03T18:26:50.279Z,5.00
2022-12-03T18:29:16.904Z,5.00
2022-12-03T18:31:43.678Z,5.00
2022-12-03T18:34:10.268Z,5.00
2022-12-03T18:36:37.045Z,5.00
2022-12-03T18:39:06.187Z,5.00
2022-12-03T18:41:33.449Z,5.00
2022-12-03T18:44:03.485Z,5.00
2022-12-03T18:46:52.528Z,5.00
2022-12-03T18:49:17.018Z,5.00
2022-12-03T18:51:43.656Z,5.00
2022-12-03T18:54:12.795Z,5.00
2022-12-03T18:56:42.868Z,5.00
2022-12-03T18:59:09.607Z,5.00
2022-12-03T19:01:36.456Z,5.00
2022-12-03T19:04:03.458Z,5.00
2022-12-03T19:06:30.647Z,5.00
2022-12-03T19:08:57.636Z,5.00
2022-12-03T19:11:24.372Z,5.00
2022-12-03T19:13:51.788Z,5.00
2022-12-03T19:16:18.423Z,5.00
2022-12-03T19:18:45.311Z,5.00
2022-12-03T19:21:14.866Z,4.90
2022-12-03T19:23:47.338Z,5.00
2022-12-03T19:26:25.744Z,5.00
2022-12-03T19:28:53.876Z,4.90
2022-12-03T19:31:20.649Z,4.90
2022-12-03T19:33:47.484Z,5.00
2022-12-03T19:36:26.123Z,4.90
2022-12-03T19:38:57.308Z,4.90
2022-12-03T19:41:30.413Z,4.90
2022-12-03T19:43:58.258Z,4.90
2022-12-03T19:46:28.879Z,4.90
2022-12-03T19:48:55.542Z,5.00
2022-12-03T19:51:37.220Z,4.90
2022-12-03T19:54:05.678Z,4.90
2022-12-03T19:56:32.720Z,4.90
2022-12-03T19:58:59.771Z,4.90
2022-12-03T20:01:29.112Z,4.90
2022-12-03T20:03:58.307Z,4.90
2022-12-03T20:06:27.694Z,4.90
2022-12-03T20:09:02.364Z,4.90
2022-12-03T20:11:31.743Z,4.90
2022-12-03T20:14:01.539Z,4.90
2022-12-03T20:16:29.096Z,4.90
2022-12-03T20:18:58.343Z,4.90
2022-12-03T20:21:25.291Z,4.90
2022-12-03T20:23:52.227Z,4.90
2022-12-03T20:26:20.613Z,4.90
2022-12-03T20:28:50.892Z,4.90
2022-12-03T20:31:20.398Z,4.90
2022-12-03T20:33:49.797Z,4.90
2022-12-03T20:36:18.600Z,4.90
2022-12-03T20:38:45.317Z,4.90
2022-12-03T20:41:21.146Z,4.90
2022-12-03T20:43:48.555Z,4.90
2022-12-03T20:46:29.378Z,4.90
2022-12-03T20:48:56.420Z,4.90
2022-12-03T20:51:25.956Z,4.90
2022-12-03T20:53:52.660Z,4.90
2022-12-03T20:56:22.316Z,4.90
2022-12-03T20:58:50.065Z,4.90
2022-12-03T21:01:20.530Z,4.90
2022-12-03T21:03:47.655Z,4.90
2022-12-03T21:06:15.463Z,4.90
2022-12-03T21:08:43.269Z,4.90
2022-12-03T21:11:12.446Z,4.90
2022-12-03T21:13:43.912Z,4.90
2022-12-03T21:16:13.940Z,4.90
2022-12-03T21:18:40.860Z,4.90
2022-12-03T21:21:08.901Z,4.90
2022-12-03T21:23:36.052Z,4.90
2022-12-03T21:26:08.023Z,4.90
2022-12-03T21:28:34.766Z,4.90
2022-12-03T21:31:07.136Z,4.90
2022-12-03T21:33:34.700Z,4.90
2022-12-03T21:36:01.929Z,4.90
2022-12-03T21:38:30.248Z,4.90
2022-12-03T21:40:57.291Z,4.90
2022-12-03T21:43:24.737Z,4.90
2022-12-03T21:45:52.139Z,4.90
2022-12-03T21:48:19.917Z,4.90
2022-12-03T21:50:56.869Z,4.90
2022-12-03T21:53:23.525Z,4.90
2022-12-03T21:55:50.164Z,4.90
2022-12-03T21:58:16.806Z,4.90
2022-12-03T22:00:43.450Z,4.90
2022-12-03T22:03:10.186Z,4.90
2022-12-03T22:05:38.623Z,4.90
2022-12-03T22:08:05.381Z,4.90
2022-12-03T22:10:32.025Z,4.90
2022-12-03T22:12:58.650Z,4.90
2022-12-03T22:15:25.370Z,4.90
2022-12-03T22:17:52.020Z,4.90
2022-12-03T22:20:19.217Z,4.90
2022-12-03T22:22:45.898Z,4.80
2022-12-03T22:25:12.501Z,4.90
2022-12-03T22:27:39.175Z,4.90
2022-12-03T22:30:07.753Z,4.90
2022-12-03T22:32:34.423Z,4.90
2022-12-03T22:35:01.020Z,4.90
2022-12-03T22:37:27.672Z,4.80
2022-12-03T22:39:54.604Z,4.90
2022-12-03T22:42:21.378Z,4.90
2022-12-03T22:44:47.980Z,4.90
2022-12-03T22:47:14.674Z,4.90
2022-12-03T22:49:41.250Z,4.90
2022-12-03T22:52:08.204Z,4.80
2022-12-03T22:54:34.798Z,4.90
2022-12-03T22:57:01.528Z,4.80
2022-12-03T22:59:28.203Z,4.90
2022-12-03T23:01:54.838Z,4.80
2022-12-03T23:04:21.603Z,4.80
2022-12-03T23:06:48.263Z,4.80
2022-12-03T23:09:14.872Z,4.90
2022-12-03T23:11:45.481Z,4.80
2022-12-03T23:14:13.075Z,4.80
2022-12-03T23:16:40.535Z,4.80
2022-12-03T23:19:07.211Z,4.80
2022-12-03T23:21:35.321Z,4.90
2022-12-03T23:24:03.695Z,4.80
2022-12-03T23:26:30.520Z,4.80
2022-12-03T23:28:57.237Z,4.80
2022-12-03T23:31:29.627Z,4.70
2022-12-03T23:33:56.748Z,4.70
2022-12-03T23:36:25.487Z,4.70
2022-12-03T23:38:52.105Z,4.70
2022-12-03T23:41:21.250Z,4.70
2022-12-03T23:43:49.115Z,4.80
2022-12-03T23:46:25.523Z,4.80
2022-12-03T23:48:52.485Z,4.80
2022-12-03T23:51:23.824Z,4.70
2022-12-03T23:53:51.197Z,4.70
2022-12-03T23:56:21.869Z,4.80
2022-12-03T23:58:48.649Z,4.80
